createdAt,value
2022-09-04T02:44:46.027Z,88.18
2022-09-04T02:45:54.655Z,88.49
2022-09-04T02:46:53.758Z,88.18
2022-09-04T02:47:53.752Z,88.08
2022-09-04T02:48:53.713Z,87.67
2022-09-04T02:49:55.000Z,87.67
2022-09-04T02:50:53.687Z,87.37
2022-09-04T02:51:53.879Z,87.73
2022-09-04T02:52:53.670Z,87.43
2022-09-04T02:54:19.875Z,87.22
2022-09-04T02:55:22.013Z,86.67
2022-09-04T02:56:19.778Z,86.67
2022-09-04T02:56:47.487Z,86.22
2022-09-04T02:58:19.650Z,86.32
2022-09-04T02:59:19.867Z,85.47
2022-09-04T03:00:21.228Z,85.06
2022-09-04T03:01:19.791Z,85.06
2022-09-04T03:02:19.661Z,84.34
2022-09-04T03:03:20.760Z,83.59
2022-09-04T03:04:19.586Z,83.18
2022-09-04T03:05:20.964Z,83.52
2022-09-04T03:06:19.979Z,83.11
2022-09-04T03:07:19.564Z,82.70
2022-09-04T03:07:47.246Z,82.09
2022-09-04T03:09:19.564Z,82.43
2022-09-04T03:10:20.514Z,82.89
2022-09-04T03:11:19.744Z,83.44
2022-09-04T03:12:13.437Z,83.54
2022-09-04T03:13:19.658Z,85.31
2022-09-04T03:13:47.233Z,86.99
2022-09-04T03:15:20.964Z,87.61
2022-09-04T03:15:48.180Z,87.82
2022-09-04T03:16:47.052Z,88.12
2022-09-04T03:18:19.622Z,88.74
2022-09-04T03:19:19.608Z,88.74
2022-09-04T03:20:20.878Z,88.64
2022-09-04T03:21:19.337Z,88.53
2022-09-04T03:22:19.529Z,88.29
2022-09-04T03:22:48.040Z,88.18
2022-09-04T03:24:13.449Z,88.23
2022-09-04T03:24:47.498Z,88.33
2022-09-04T03:26:19.404Z,87.82
2022-09-04T03:27:19.553Z,87.10
2022-09-04T03:28:19.485Z,87.37
2022-09-04T03:29:19.341Z,87.37
2022-09-04T03:30:20.519Z,87.26
2022-09-04T03:31:20.355Z,87.26
2022-09-04T03:32:19.311Z,86.85
2022-09-04T03:33:19.323Z,86.58
2022-09-04T03:34:19.413Z,87.30
2022-09-04T03:35:21.805Z,86.90
2022-09-04T03:36:19.323Z,86.93
2022-09-04T03:37:19.278Z,87.45
2022-09-04T03:38:19.334Z,87.70
2022-09-04T03:39:19.230Z,87.90
2022-09-04T03:39:46.986Z,88.92
2022-09-04T03:41:19.675Z,88.92
2022-09-04T03:42:19.175Z,89.03
2022-09-04T03:43:19.244Z,89.95
2022-09-04T03:44:20.514Z,90.77
2022-09-04T03:45:19.241Z,90.67
2022-09-04T03:46:19.232Z,90.67
2022-09-04T03:47:19.157Z,90.93
2022-09-04T03:48:19.633Z,90.73
2022-09-04T03:49:20.229Z,90.93
2022-09-04T03:50:19.203Z,90.48
2022-09-04T03:51:19.194Z,89.97
2022-09-04T03:52:13.244Z,89.42
2022-09-04T03:53:13.158Z,88.59
2022-09-04T03:54:21.592Z,87.98
2022-09-04T03:55:19.881Z,87.37
2022-09-04T03:56:19.201Z,86.44
2022-09-04T03:57:20.391Z,85.72
2022-09-04T03:58:19.101Z,85.72
2022-09-04T03:59:21.189Z,86.24
2022-09-04T04:00:19.055Z,87.06
2022-09-04T04:01:24.201Z,87.47
2022-09-04T04:02:13.374Z,88.64
2022-09-04T04:03:19.028Z,89.09
2022-09-04T04:04:20.326Z,89.45
2022-09-04T04:05:20.390Z,89.50
2022-09-04T04:06:18.970Z,89.19
2022-09-04T04:07:18.989Z,89.29
2022-09-04T04:07:46.779Z,89.39
2022-09-04T04:09:19.228Z,89.04
2022-09-04T04:10:20.035Z,88.98
2022-09-04T04:11:12.913Z,88.94
2022-09-04T04:12:18.957Z,89.04
2022-09-04T04:13:18.962Z,88.94
2022-09-04T04:14:19.291Z,88.59
2022-09-04T04:16:05.445Z,87.26
2022-09-04T04:17:14.229Z,86.65
2022-09-04T04:18:12.991Z,86.44
2022-09-04T04:19:12.955Z,86.30
2022-09-04T04:20:14.164Z,86.40
2022-09-04T04:21:13.064Z,86.65
2022-09-04T04:22:12.901Z,86.14
2022-09-04T04:23:13.122Z,85.72
2022-09-04T04:25:19.459Z,85.77
2022-09-04T04:26:27.098Z,86.69
2022-09-04T04:27:27.070Z,87.14
2022-09-04T04:28:27.123Z,87.55
2022-09-04T04:29:28.230Z,87.24
2022-09-04T04:33:12.389Z,88.37
2022-09-04T04:34:19.946Z,89.03
2022-09-04T04:35:21.069Z,89.75
2022-09-04T04:36:19.905Z,89.75
2022-09-04T04:37:20.012Z,90.05
2022-09-04T04:39:39.309Z,88.72
2022-09-04T04:40:46.922Z,88.92
2022-09-04T04:41:46.858Z,88.86
2022-09-04T04:42:46.894Z,89.48
2022-09-04T04:43:46.875Z,90.09
2022-09-04T04:44:48.022Z,90.16
2022-09-04T04:45:46.908Z,90.61
2022-09-04T04:46:46.871Z,91.02
2022-09-04T04:47:46.849Z,91.18
2022-09-04T04:48:48.142Z,91.28
2022-09-04T04:49:48.201Z,90.56
2022-09-04T04:50:48.018Z,90.73
2022-09-04T04:52:12.938Z,90.11
2022-09-04T04:53:12.840Z,89.66
2022-09-04T04:54:12.835Z,89.04
2022-09-04T04:55:13.961Z,88.64
2022-09-04T04:56:13.111Z,88.08
2022-09-04T04:57:12.779Z,87.06
2022-09-04T04:58:12.791Z,85.72
2022-09-04T04:59:12.773Z,85.11
2022-09-04T05:00:14.119Z,85.56
2022-09-04T05:01:13.051Z,85.77
2022-09-04T05:02:12.817Z,86.18
2022-09-04T05:02:40.674Z,86.44
2022-09-04T05:04:12.772Z,85.72
2022-09-04T05:04:40.501Z,86.24
2022-09-04T05:06:13.779Z,85.42
2022-09-04T05:07:06.720Z,85.77
2022-09-04T05:08:14.000Z,85.87
2022-09-04T05:09:06.686Z,85.56
2022-09-04T05:10:14.918Z,85.93
2022-09-04T05:11:06.758Z,85.42
2022-09-04T05:12:12.641Z,85.66
2022-09-04T05:13:12.663Z,86.38
2022-09-04T05:14:12.711Z,86.79
2022-09-04T05:16:37.837Z,86.24
2022-09-04T05:17:46.031Z,85.69
2022-09-04T05:18:45.470Z,85.48
2022-09-04T05:19:46.703Z,85.72
2022-09-04T05:20:45.363Z,85.52
2022-09-04T05:21:45.438Z,86.24
2022-09-04T05:22:46.228Z,86.44
2022-09-04T05:23:45.404Z,86.75
2022-09-04T05:25:12.732Z,86.96
2022-09-04T05:26:11.408Z,86.91
2022-09-04T05:27:11.437Z,87.26
2022-09-04T05:28:11.395Z,87.37
2022-09-04T05:29:11.406Z,87.26
2022-09-04T05:30:12.528Z,87.43
2022-09-04T05:31:11.348Z,87.63
2022-09-04T05:32:12.389Z,87.32
2022-09-04T05:33:11.347Z,87.43
2022-09-04T05:34:11.328Z,87.73
2022-09-04T05:35:13.592Z,87.49
2022-09-04T05:36:11.440Z,87.49
2022-09-04T05:37:11.329Z,86.94
2022-09-04T05:38:12.276Z,86.02
2022-09-04T05:39:11.512Z,85.20
2022-09-04T05:39:39.102Z,84.75
2022-09-04T05:41:12.540Z,84.30
2022-09-04T05:42:06.778Z,83.62
2022-09-04T05:43:11.252Z,83.28
2022-09-04T05:44:11.381Z,82.87
2022-09-04T05:45:12.477Z,81.85
2022-09-04T05:47:36.417Z,81.85
2022-09-04T05:48:44.056Z,82.01
2022-09-04T05:49:45.150Z,82.63
2022-09-04T05:50:44.042Z,82.12
2022-09-04T05:51:44.048Z,82.22
2022-09-04T05:52:44.061Z,81.81
2022-09-04T05:53:44.021Z,81.67
2022-09-04T05:54:46.497Z,81.46
2022-09-04T05:55:44.010Z,82.12
2022-09-04T05:56:44.026Z,81.91
2022-09-04T05:58:11.391Z,82.32
2022-09-04T05:59:10.029Z,82.79
2022-09-04T06:00:05.365Z,83.00
2022-09-04T06:01:10.027Z,82.89
2022-09-04T06:02:10.119Z,82.69
2022-09-04T06:03:10.677Z,82.49
2022-09-04T06:04:10.003Z,81.98
2022-09-04T06:05:56.727Z,81.98
2022-09-04T06:07:04.546Z,83.00
2022-09-04T06:08:04.427Z,83.20
2022-09-04T06:09:04.405Z,82.79
2022-09-04T06:10:31.814Z,82.96
2022-09-04T06:11:30.464Z,82.79
2022-09-04T06:12:25.375Z,82.86
2022-09-04T06:13:24.526Z,82.65
2022-09-04T06:14:30.666Z,83.26
2022-09-04T06:15:31.462Z,83.06
2022-09-04T06:16:30.471Z,83.12
2022-09-04T06:17:30.376Z,82.47
2022-09-04T06:17:58.110Z,81.96
2022-09-04T06:19:31.173Z,81.56
2022-09-04T06:20:33.978Z,81.56
2022-09-04T06:21:30.524Z,81.96
2022-09-04T06:22:35.427Z,82.07
2022-09-04T06:23:30.296Z,82.13
2022-09-04T06:24:30.308Z,81.31
2022-09-04T06:25:31.353Z,80.29
2022-09-04T06:25:58.069Z,79.75
2022-09-04T06:27:30.368Z,79.64
2022-09-04T06:28:30.456Z,79.44
2022-09-04T06:29:30.250Z,79.54
2022-09-04T06:30:31.564Z,79.10
2022-09-04T06:31:31.464Z,79.41
2022-09-04T06:32:30.334Z,79.20
2022-09-04T06:33:30.546Z,78.89
2022-09-04T06:34:30.324Z,78.35
2022-09-04T06:35:31.769Z,78.86
2022-09-04T06:36:24.298Z,78.80
2022-09-04T06:36:57.987Z,78.66
2022-09-04T06:38:30.246Z,78.72
2022-09-04T06:38:57.867Z,78.41
2022-09-04T06:40:32.353Z,78.21
2022-09-04T06:41:37.050Z,78.72
2022-09-04T06:42:30.180Z,77.97
2022-09-04T06:43:30.163Z,77.77
2022-09-04T06:44:30.200Z,77.33
2022-09-04T06:45:32.490Z,77.02
2022-09-04T06:46:30.323Z,76.92
2022-09-04T06:47:30.601Z,77.33
2022-09-04T06:48:24.222Z,77.12
2022-09-04T06:49:30.103Z,76.88
2022-09-04T06:49:58.943Z,77.12
2022-09-04T06:51:31.618Z,77.09
2022-09-04T06:52:30.115Z,77.09
2022-09-04T06:53:30.056Z,76.58
2022-09-04T06:54:32.202Z,76.98
2022-09-04T06:57:42.368Z,76.68
2022-09-04T06:58:50.042Z,76.92
2022-09-04T06:59:51.159Z,76.48
2022-09-04T07:00:50.002Z,76.88
2022-09-04T07:02:10.158Z,76.88
2022-09-04T07:02:43.850Z,76.28
2022-09-04T07:05:41.226Z,76.85
2022-09-04T07:06:48.951Z,77.36
2022-09-04T07:07:48.867Z,76.34
2022-09-04T07:08:48.921Z,76.75
2022-09-04T07:09:51.071Z,76.95
2022-09-04T07:10:48.811Z,76.61
2022-09-04T07:11:48.784Z,76.95
2022-09-04T07:12:48.713Z,76.75
2022-09-04T07:15:08.099Z,76.61
2022-09-04T07:17:40.937Z,77.28
2022-09-04T07:18:49.338Z,76.94
2022-09-04T07:19:49.675Z,76.94
2022-09-04T07:20:48.853Z,76.43
2022-09-04T07:22:08.860Z,76.90
2022-09-04T07:22:42.319Z,76.60
2022-09-04T07:24:15.112Z,76.90
2022-09-04T07:25:09.996Z,75.59
2022-09-04T07:26:09.404Z,74.98
2022-09-04T07:27:08.636Z,74.74
2022-09-04T07:28:14.838Z,74.74
2022-09-04T07:28:42.688Z,74.95
2022-09-04T07:30:15.692Z,75.21
2022-09-04T07:30:42.274Z,75.62
2022-09-04T07:32:14.495Z,75.82
2022-09-04T07:33:14.533Z,74.81
2022-09-04T07:34:15.480Z,75.01
2022-09-04T07:34:42.305Z,75.28
2022-09-04T07:36:14.484Z,74.63
2022-09-04T07:37:14.455Z,74.43
2022-09-04T07:38:14.747Z,74.54
2022-09-04T07:38:42.127Z,74.60
2022-09-04T07:40:16.928Z,74.43
2022-09-04T07:41:08.450Z,73.59
2022-09-04T07:41:42.218Z,74.90
2022-09-04T07:42:42.240Z,74.77
2022-09-04T07:43:41.831Z,74.16
2022-09-04T07:45:16.500Z,74.16
2022-09-04T07:45:42.174Z,72.95
2022-09-04T07:46:41.982Z,72.71
2022-09-04T07:48:14.418Z,74.63
2022-09-04T07:48:42.089Z,73.86
2022-09-04T07:49:42.245Z,74.33
2022-09-04T07:51:14.449Z,73.62
2022-09-04T07:51:42.064Z,75.44
2022-09-04T07:52:42.169Z,76.35
2022-09-04T07:54:19.591Z,76.65
2022-09-04T07:54:43.798Z,75.71
2022-09-04T07:55:41.932Z,77.32
2022-09-04T07:56:41.755Z,77.08
2022-09-04T07:57:41.718Z,77.89
2022-09-04T07:59:14.381Z,79.21
2022-09-04T07:59:42.207Z,79.57
2022-09-04T08:00:41.903Z,78.76
2022-09-04T08:01:42.000Z,79.06
2022-09-04T08:02:41.673Z,77.95
2022-09-04T08:03:49.138Z,76.51
2022-09-04T08:04:42.756Z,77.21
2022-09-04T08:05:41.610Z,77.11
2022-09-04T08:06:41.719Z,76.07
2022-09-04T08:07:41.603Z,76.57
2022-09-04T08:09:15.626Z,75.96
2022-09-04T08:09:41.741Z,76.03
2022-09-04T08:10:41.801Z,76.37
2022-09-04T08:11:41.660Z,76.14
2022-09-04T08:12:41.515Z,75.43
2022-09-04T08:13:41.648Z,74.42
2022-09-04T08:14:41.570Z,75.83
2022-09-04T08:15:43.377Z,75.73
2022-09-04T08:16:42.658Z,76.23
2022-09-04T08:17:41.539Z,74.69
2022-09-04T08:18:41.492Z,73.78
2022-09-04T08:19:41.448Z,73.28
2022-09-04T08:20:41.461Z,73.24
2022-09-04T08:21:41.510Z,72.84
2022-09-04T08:22:41.475Z,71.73
2022-09-04T08:23:41.435Z,72.84
2022-09-04T08:24:41.484Z,72.61
2022-09-04T08:25:41.552Z,72.34
2022-09-04T08:26:41.376Z,72.30
2022-09-04T08:27:42.955Z,72.20
2022-09-04T08:28:45.960Z,71.16
2022-09-04T08:29:43.387Z,71.83
2022-09-04T08:30:41.378Z,70.32
2022-09-04T08:31:41.318Z,70.19
2022-09-04T08:32:41.391Z,69.82
2022-09-04T08:34:15.333Z,69.62
2022-09-04T08:37:49.568Z,70.29
2022-09-04T08:38:49.633Z,69.69
2022-09-04T08:39:49.672Z,69.46
2022-09-04T08:40:52.279Z,69.89
2022-09-04T08:41:50.757Z,69.76
2022-09-04T08:42:50.706Z,69.26
2022-09-04T08:43:50.701Z,68.25
2022-09-04T08:45:26.395Z,68.76
2022-09-04T08:45:51.323Z,67.82
2022-09-04T08:47:23.149Z,67.61
2022-09-04T08:47:51.001Z,68.62
2022-09-04T08:48:51.626Z,68.62
2022-09-04T08:49:50.692Z,68.39
2022-09-04T08:50:50.713Z,68.59
2022-09-04T08:51:50.640Z,67.96
2022-09-04T08:55:33.312Z,68.05
2022-09-04T08:56:33.769Z,67.72
2022-09-04T08:57:33.435Z,68.42
2022-09-04T08:58:34.612Z,68.49
2022-09-04T08:59:34.740Z,68.22
2022-09-04T09:00:34.436Z,67.49
2022-09-04T09:01:34.480Z,67.25
2022-09-04T09:02:34.692Z,67.79
2022-09-04T09:03:34.593Z,67.39
2022-09-04T09:04:34.505Z,66.96
2022-09-04T09:05:34.344Z,67.55
2022-09-04T09:06:35.170Z,67.63
2022-09-04T09:07:34.380Z,67.13
2022-09-04T09:08:35.103Z,67.63
2022-09-04T09:09:34.315Z,67.22
2022-09-04T09:10:34.340Z,66.79
2022-09-04T09:11:48.481Z,66.39
2022-09-04T09:12:40.265Z,66.32
2022-09-04T09:13:35.334Z,67.25
2022-09-04T09:14:34.346Z,66.32
2022-09-04T09:15:34.619Z,67.22
2022-09-04T09:16:34.263Z,66.52
2022-09-04T09:17:34.801Z,66.09
2022-09-04T09:18:34.423Z,65.89
2022-09-04T09:19:34.327Z,66.56
2022-09-04T09:20:34.269Z,65.86
2022-09-04T09:21:34.300Z,65.06
2022-09-04T09:22:34.858Z,64.93
2022-09-04T09:23:34.208Z,65.03
2022-09-04T09:24:34.198Z,64.00
2022-09-04T09:25:34.519Z,63.80
2022-09-04T09:26:34.361Z,64.40
2022-09-04T09:27:34.311Z,64.20
2022-09-04T09:28:34.174Z,63.27
2022-09-04T09:29:34.214Z,63.67
2022-09-04T09:30:34.817Z,63.17
2022-09-04T09:31:34.164Z,62.34
2022-09-04T09:32:34.117Z,62.67
2022-09-04T09:33:34.243Z,62.27
2022-09-04T09:34:34.091Z,63.34
2022-09-04T09:35:34.774Z,63.34
2022-09-04T09:36:34.155Z,63.67
2022-09-04T09:37:34.198Z,63.27
2022-09-04T09:38:36.147Z,62.77
2022-09-04T09:39:34.197Z,63.70
2022-09-04T09:40:34.771Z,63.50
2022-09-04T09:41:37.165Z,63.77
2022-09-04T09:42:34.843Z,62.94
2022-09-04T09:43:34.073Z,63.54
2022-09-04T09:44:34.195Z,62.61
2022-09-04T09:47:51.041Z,60.99
2022-09-04T09:48:50.560Z,61.29
2022-09-04T09:49:50.868Z,62.29
2022-09-04T09:50:50.581Z,61.29
2022-09-04T09:51:50.425Z,60.52
2022-09-04T09:55:24.255Z,61.09
2022-09-04T10:00:35.049Z,60.49
2022-09-04T10:01:35.144Z,60.76
2022-09-04T10:02:35.170Z,60.36
2022-09-04T10:03:35.430Z,60.06
2022-09-04T10:04:35.026Z,60.46
2022-09-04T10:05:34.959Z,59.27
2022-09-04T10:06:35.733Z,59.36
2022-09-04T10:07:36.356Z,59.66
2022-09-04T10:08:36.553Z,59.74
2022-09-04T10:09:36.242Z,60.24
2022-09-04T10:13:17.946Z,57.89
2022-09-04T10:14:20.271Z,58.61
2022-09-04T10:22:21.774Z,57.36
2022-09-04T10:23:26.107Z,57.66
2022-09-04T10:24:23.218Z,56.54
2022-09-04T10:25:22.935Z,57.24
2022-09-04T10:26:22.977Z,55.82
2022-09-04T10:27:22.842Z,55.32
2022-09-04T10:28:22.805Z,55.42
2022-09-04T10:32:32.862Z,54.80
2022-09-04T10:33:32.892Z,55.02
2022-09-04T10:34:33.817Z,56.02
2022-09-04T10:35:32.843Z,55.02
2022-09-04T10:36:35.095Z,55.91
2022-09-04T10:37:33.884Z,55.12
2022-09-04T10:38:34.317Z,55.19
2022-09-04T10:39:34.899Z,55.29
2022-09-04T10:40:33.969Z,55.57
2022-09-04T10:41:34.021Z,54.77
2022-09-04T10:42:34.217Z,54.55
2022-09-04T10:43:33.855Z,53.73
2022-09-04T10:44:44.127Z,53.43
2022-09-04T10:45:36.867Z,53.33
2022-09-04T10:46:34.066Z,53.26
2022-09-04T10:47:35.155Z,53.45
2022-09-04T10:48:35.228Z,53.06
2022-09-04T10:49:35.222Z,53.48
2022-09-04T10:50:35.280Z,53.66
2022-09-04T10:52:06.362Z,53.48
2022-09-04T10:52:34.760Z,53.80
2022-09-04T10:53:34.335Z,53.70
2022-09-04T10:54:33.806Z,53.78
2022-09-04T10:55:34.104Z,52.96
2022-09-04T11:00:35.941Z,51.25
2022-09-04T11:01:36.942Z,50.95
2022-09-04T11:02:37.348Z,50.65
2022-09-04T11:04:21.010Z,50.73
2022-09-04T11:04:55.677Z,50.93
2022-09-04T11:05:36.982Z,51.72
2022-09-04T11:06:41.994Z,50.04
2022-09-04T11:07:42.622Z,49.84
2022-09-04T11:08:42.245Z,50.65
2022-09-04T11:09:36.576Z,51.35
2022-09-04T11:10:37.542Z,50.95
2022-09-04T11:11:37.215Z,51.12
2022-09-04T11:12:36.252Z,50.01
2022-09-04T11:13:36.721Z,49.19
2022-09-04T11:14:36.485Z,48.90
2022-09-04T11:15:36.354Z,49.62
2022-09-04T11:16:50.626Z,49.10
2022-09-04T11:18:28.227Z,48.28
2022-09-04T11:18:42.671Z,47.81
2022-09-04T11:20:12.058Z,47.41
2022-09-04T11:20:36.623Z,48.13
2022-09-04T11:21:36.433Z,47.02
2022-09-04T11:22:36.528Z,46.52
2022-09-04T11:23:36.543Z,48.01
2022-09-04T11:24:37.931Z,48.11
2022-09-04T11:25:36.160Z,48.38
2022-09-04T11:26:36.979Z,47.86
2022-09-04T11:36:46.887Z,45.51
2022-09-04T11:43:14.664Z,46.33
2022-09-04T11:44:36.479Z,45.32
2022-09-04T11:49:43.407Z,44.81
2022-09-04T11:51:18.181Z,44.71
2022-09-04T11:51:44.777Z,44.42
2022-09-04T11:52:44.764Z,45.10
2022-09-04T11:58:45.990Z,45.10
2022-09-04T11:59:47.403Z,45.97
2022-09-04T12:00:47.266Z,45.38
2022-09-04T12:01:48.715Z,46.17
2022-09-04T12:02:48.030Z,46.09
2022-09-04T12:13:14.861Z,46.55
2022-09-04T12:14:05.424Z,46.14
2022-09-04T12:15:07.463Z,46.53
2022-09-04T12:16:04.712Z,46.23
2022-09-04T12:17:07.830Z,47.10
2022-09-04T12:18:05.380Z,45.70
2022-09-04T12:19:05.377Z,44.29
2022-09-04T12:20:07.890Z,44.29
2022-09-04T12:21:06.320Z,44.81
2022-09-04T12:22:06.211Z,45.52
2022-09-04T12:23:14.589Z,45.42
2022-09-04T12:24:06.239Z,45.52
2022-09-04T12:25:05.434Z,45.13
2022-09-04T12:26:05.301Z,45.50
2022-09-04T12:27:05.512Z,45.08
2022-09-04T12:28:21.266Z,44.39
2022-09-04T12:29:06.231Z,43.80
2022-09-04T12:30:05.446Z,44.10
2022-09-04T12:31:05.210Z,43.31
2022-09-04T12:32:05.673Z,43.70
2022-09-04T12:33:08.324Z,43.60
2022-09-04T12:34:06.098Z,43.51
2022-09-04T12:35:07.472Z,43.68
2022-09-04T12:36:06.873Z,42.85
2022-09-04T12:37:05.338Z,43.23
2022-09-04T12:38:05.196Z,42.73
2022-09-04T12:39:06.189Z,41.33
2022-09-04T12:40:05.912Z,41.61
2022-09-04T12:41:06.421Z,40.80
2022-09-04T12:42:09.007Z,40.51
2022-09-04T12:43:05.140Z,40.92
2022-09-04T12:44:05.120Z,41.14
2022-09-04T12:45:05.672Z,39.86
2022-09-04T12:46:05.510Z,41.99
2022-09-04T12:47:15.711Z,42.74
2022-09-04T12:48:15.965Z,44.14
2022-09-04T12:49:18.818Z,45.23
2022-09-04T12:50:10.274Z,44.12
2022-09-04T12:51:08.847Z,44.39
2022-09-04T12:52:06.093Z,42.50
2022-09-04T12:53:05.117Z,42.47
2022-09-04T12:54:05.231Z,42.65
2022-09-04T12:55:04.997Z,41.96
2022-09-04T12:56:06.472Z,41.33
2022-09-04T12:57:05.687Z,40.84
2022-09-04T13:02:07.730Z,41.85
2022-09-04T13:03:21.396Z,41.14
2022-09-04T13:04:10.362Z,40.94
2022-09-04T13:05:08.656Z,40.94
2022-09-04T13:06:09.231Z,41.83
2022-09-04T13:07:16.186Z,40.72
2022-09-04T13:08:10.084Z,39.84
2022-09-04T13:09:08.748Z,39.76
2022-09-04T13:14:48.789Z,39.00
2022-09-04T13:15:57.099Z,38.52
2022-09-04T13:16:51.159Z,38.90
2022-09-04T13:19:53.021Z,37.60
2022-09-04T13:23:26.030Z,39.32
2022-09-04T13:26:35.019Z,39.05
2022-09-04T13:28:16.545Z,39.05
2022-09-04T13:30:50.197Z,38.82
2022-09-04T13:31:57.578Z,38.01
2022-09-04T13:34:44.551Z,37.05
2022-09-04T13:40:05.797Z,38.15
2022-09-04T13:41:05.904Z,38.23
2022-09-04T13:42:05.663Z,37.42
2022-09-04T13:43:05.735Z,37.30
2022-09-04T13:44:13.352Z,36.93
2022-09-04T13:45:06.491Z,37.44
2022-09-04T13:48:52.553Z,37.55
2022-09-04T13:51:51.264Z,39.17
2022-09-04T13:52:51.809Z,38.56
2022-09-04T13:53:51.419Z,38.56
2022-09-04T13:59:28.948Z,32.86
2022-09-04T14:00:31.734Z,32.43
2022-09-04T14:06:43.508Z,35.00
2022-09-04T14:07:45.167Z,34.39
2022-09-04T14:08:57.955Z,34.41
2022-09-04T14:09:46.643Z,34.41
2022-09-04T14:10:45.166Z,34.51
2022-09-04T14:16:16.152Z,34.57
2022-09-04T14:17:17.704Z,34.47
2022-09-04T14:18:17.342Z,34.39
2022-09-04T14:19:17.685Z,35.78
2022-09-04T14:20:22.249Z,35.89
2022-09-04T14:21:55.035Z,36.01
2022-09-04T14:22:25.595Z,35.62
2022-09-04T14:23:20.776Z,36.70
2022-09-04T14:46:06.511Z,38.71
2022-09-04T14:57:17.977Z,39.84
2022-09-04T15:22:21.962Z,39.28
2022-09-04T15:23:25.296Z,39.42
2022-09-04T15:24:26.610Z,39.28
2022-09-04T15:25:56.788Z,38.30
2022-09-04T15:26:26.220Z,38.51
2022-09-04T15:27:26.039Z,39.94
2022-09-04T15:28:25.382Z,39.23
2022-09-04T15:29:23.272Z,37.08
2022-09-04T15:30:24.511Z,35.93
2022-09-04T15:31:24.738Z,35.11
2022-09-04T15:32:25.304Z,34.66
2022-09-04T15:33:25.359Z,36.05
2022-09-04T15:34:36.981Z,36.28
2022-09-04T15:35:27.565Z,37.18
2022-09-04T15:36:25.899Z,37.30
2022-09-04T15:37:25.130Z,37.83
2022-09-04T15:38:23.126Z,37.53
2022-09-04T15:39:24.095Z,37.35
2022-09-04T15:40:50.447Z,38.24
2022-09-04T15:41:48.779Z,38.02
2022-09-04T15:42:25.584Z,37.71
2022-09-04T16:07:46.427Z,42.25
2022-09-04T16:08:52.037Z,42.14
2022-09-04T16:15:45.294Z,42.96
2022-09-04T16:16:47.096Z,42.86
2022-09-04T16:17:46.936Z,43.06
2022-09-04T16:18:47.102Z,43.06
2022-09-04T16:19:46.793Z,43.35
2022-09-04T16:20:47.305Z,43.75
2022-09-04T16:21:46.614Z,43.46
2022-09-04T16:22:46.933Z,42.96
2022-09-04T16:23:46.661Z,41.97
2022-09-04T16:24:46.904Z,43.06
2022-09-04T16:25:47.133Z,43.35
2022-09-04T16:26:46.562Z,41.77
2022-09-04T16:27:46.612Z,41.87
2022-09-04T16:28:47.012Z,42.35
2022-09-04T16:29:46.371Z,40.86
2022-09-04T16:30:46.488Z,41.55
2022-09-04T16:31:46.587Z,41.65
2022-09-04T16:32:47.272Z,41.55
2022-09-04T16:33:46.780Z,42.25
2022-09-04T16:34:47.046Z,41.85
2022-09-04T16:35:46.750Z,42.54
2022-09-04T16:36:46.381Z,41.87
2022-09-04T16:37:46.541Z,42.96
2022-09-04T16:38:46.541Z,42.17
2022-09-04T16:39:46.538Z,43.26
2022-09-04T16:40:47.527Z,43.08
2022-09-04T16:41:46.760Z,42.58
2022-09-04T16:42:46.716Z,43.08
2022-09-04T16:43:46.255Z,43.55
2022-09-04T16:44:46.462Z,43.57
2022-09-04T16:45:46.244Z,43.35
2022-09-04T16:46:48.152Z,42.96
2022-09-04T16:47:46.298Z,42.86
2022-09-04T16:48:46.336Z,42.96
2022-09-04T16:49:46.788Z,43.28
2022-09-04T16:50:46.866Z,43.28
